Time;durP1;ratioP1;P1;durP2;ratioP2;P2;SDS_P1;SDS_P2;PMS_P1;PMS_P2;Temp;Humidity;BMP_temperature;BMP_pressure;BME280_temperature;BME280_humidity;BME280_pressure;Samples;Min_cycle;Max_cycle;Signal;HPM_P1;HPM_P2
2023/02/05 00:01:09;;;;;;;;;;;8.10;99.90;;;;;;5077449;28;20024;-74
2023/02/05 00:03:38;;;;;;;;;;;8.10;99.90;;;;;;5085477;28;19934;-74
2023/02/05 00:06:04;;;;;;;;;;;8.10;99.90;;;;;;5087964;28;20286;-74
2023/02/05 00:08:32;;;;;;;;;;;8.10;99.90;;;;;;5084051;28;20382;-74
2023/02/05 00:11:06;;;;;;;;;;;8.10;99.90;;;;;;5083169;28;19955;-74
2023/02/05 00:13:33;;;;;;;;;;;8.10;99.90;;;;;;5088760;28;19924;-74
2023/02/05 00:15:59;;;;;;;;;;;8.10;99.90;;;;;;5089066;28;20015;-74
2023/02/05 00:18:26;;;;;;;;;;;8.00;99.90;;;;;;5081536;28;20018;-74
2023/02/05 00:20:54;;;;;;;;;;;8.10;99.90;;;;;;5087014;28;19931;-73
2023/02/05 00:23:21;;;;;;;;;;;8.00;99.90;;;;;;5079415;28;19932;-74
2023/02/05 00:25:47;;;;;;;;;;;8.00;99.90;;;;;;5086240;28;19924;-74
2023/02/05 00:28:14;;;;;;;;;;;8.00;99.90;;;;;;5082538;28;19924;-74
2023/02/05 00:30:40;;;;;;;;;;;8.00;99.90;;;;;;5083695;28;19928;-74
2023/02/05 00:33:07;;;;;;;;;;;8.00;99.90;;;;;;5085100;28;19924;-74
2023/02/05 00:35:34;;;;;;;;;;;8.00;99.90;;;;;;5086932;28;19928;-75
2023/02/05 00:38:02;;;;;;;;;;;8.00;99.90;;;;;;5085488;28;19925;-75
2023/02/05 00:40:28;;;;;;;;;;;8.00;99.90;;;;;;5085443;28;19928;-74
2023/02/05 00:42:55;;;;;;;;;;;7.90;99.90;;;;;;5084963;28;20383;-76
2023/02/05 00:45:22;;;;;;;;;;;8.00;99.90;;;;;;5085537;28;20457;-75
2023/02/05 00:47:48;;;;;;;;;;;7.90;99.90;;;;;;5085341;28;20078;-75
2023/02/05 00:50:15;;;;;;;;;;;7.90;99.90;;;;;;5086073;28;20322;-75
2023/02/05 00:52:42;;;;;;;;;;;7.90;99.90;;;;;;5086261;28;19924;-75
2023/02/05 00:55:10;;;;;;;;;;;7.90;99.90;;;;;;5086894;28;19928;-74
2023/02/05 00:57:37;;;;;;;;;;;7.90;99.90;;;;;;5083286;28;20023;-75
2023/02/05 01:00:05;;;;;;;;;;;7.90;99.90;;;;;;5087508;28;19930;-73
2023/02/05 01:02:32;;;;;;;;;;;7.90;99.90;;;;;;5084399;28;19932;-74
2023/02/05 01:04:59;;;;;;;;;;;7.90;99.90;;;;;;5084011;28;20289;-74
2023/02/05 01:07:26;;;;;;;;;;;8.00;99.90;;;;;;5087114;28;20006;-74
2023/02/05 01:09:52;;;;;;;;;;;7.90;99.90;;;;;;5080268;28;20011;-74
2023/02/05 01:12:20;;;;;;;;;;;7.90;99.90;;;;;;5083076;28;19924;-75
2023/02/05 01:14:47;;;;;;;;;;;7.90;99.90;;;;;;5082503;28;19932;-76
2023/02/05 01:17:14;;;;;;;;;;;7.90;99.90;;;;;;5087900;28;20383;-74
2023/02/05 01:19:40;;;;;;;;;;;7.80;99.90;;;;;;5083490;28;19931;-75
2023/02/05 01:22:07;;;;;;;;;;;7.80;99.90;;;;;;5079800;28;20395;-76
2023/02/05 01:24:34;;;;;;;;;;;7.80;99.90;;;;;;5080262;28;20014;-75
2023/02/05 01:27:01;;;;;;;;;;;7.80;99.90;;;;;;5083846;28;20027;-76
2023/02/05 01:29:29;;;;;;;;;;;7.80;99.90;;;;;;5084204;28;19970;-75
2023/02/05 01:31:56;;;;;;;;;;;7.80;99.90;;;;;;5080221;28;20385;-75
2023/02/05 01:34:22;;;;;;;;;;;7.80;99.90;;;;;;5077299;28;19931;-75
2023/02/05 01:36:49;;;;;;;;;;;7.80;99.90;;;;;;5082503;28;19938;-75
2023/02/05 01:39:16;;;;;;;;;;;7.70;99.90;;;;;;5080513;28;19995;-76
2023/02/05 01:41:44;;;;;;;;;;;7.70;99.90;;;;;;5083936;28;19951;-75
2023/02/05 01:44:12;;;;;;;;;;;7.70;99.90;;;;;;5085877;28;19924;-75
2023/02/05 01:46:40;;;;;;;;;;;7.70;99.90;;;;;;5084007;28;19928;-75
2023/02/05 01:49:08;;;;;;;;;;;7.70;99.90;;;;;;5082940;28;19928;-75
2023/02/05 01:51:36;;;;;;;;;;;7.70;99.90;;;;;;5080615;28;20099;-75
2023/02/05 01:54:03;;;;;;;;;;;7.70;99.90;;;;;;5084216;28;20294;-76
2023/02/05 01:56:31;;;;;;;;;;;7.70;99.90;;;;;;5084041;28;19928;-75
2023/02/05 01:59:00;;;;;;;;;;;7.70;99.90;;;;;;5087272;28;19932;-76
2023/02/05 02:01:27;;;;;;;;;;;7.70;99.90;;;;;;5079503;28;19943;-75
2023/02/05 02:03:57;;;;;;;;;;;7.70;99.90;;;;;;5082570;28;19924;-75
2023/02/05 02:06:24;;;;;;;;;;;7.70;99.90;;;;;;5081497;28;20015;-75
2023/02/05 02:08:51;;;;;;;;;;;7.70;99.90;;;;;;5080834;28;20015;-75
2023/02/05 02:11:19;;;;;;;;;;;7.70;99.90;;;;;;5083524;28;20019;-75
2023/02/05 02:13:47;;;;;;;;;;;7.70;99.90;;;;;;5087450;28;19924;-75
2023/02/05 02:16:14;;;;;;;;;;;7.70;99.90;;;;;;5083387;28;19932;-76
2023/02/05 02:18:41;;;;;;;;;;;7.70;99.90;;;;;;5083903;28;20256;-75
2023/02/05 02:21:22;;;;;;;;;;;7.70;99.90;;;;;;5081089;28;21600;-74
2023/02/05 02:24:02;;;;;;;;;;;7.70;99.90;;;;;;5083948;28;19925;-75
2023/02/05 02:26:41;;;;;;;;;;;7.70;99.90;;;;;;5082264;28;19933;-74
2023/02/05 02:29:11;;;;;;;;;;;7.60;99.90;;;;;;5086224;28;19924;-74
2023/02/05 02:31:41;;;;;;;;;;;7.60;99.90;;;;;;5089369;28;20402;-74
2023/02/05 02:34:11;;;;;;;;;;;7.60;99.90;;;;;;5090627;28;19931;-74
2023/02/05 02:36:42;;;;;;;;;;;7.60;99.90;;;;;;5087335;28;19928;-74
2023/02/05 02:39:10;;;;;;;;;;;7.60;99.90;;;;;;5088745;28;19928;-74
2023/02/05 02:41:41;;;;;;;;;;;7.60;99.90;;;;;;5084015;28;19925;-74
2023/02/05 02:44:11;;;;;;;;;;;7.60;99.90;;;;;;5086920;28;20446;-74
2023/02/05 02:46:40;;;;;;;;;;;7.60;99.90;;;;;;5079871;28;20375;-74
2023/02/05 02:49:11;;;;;;;;;;;7.60;99.90;;;;;;5080798;28;19971;-74
2023/02/05 02:51:39;;;;;;;;;;;7.60;99.90;;;;;;5087426;28;20238;-74
2023/02/05 02:54:07;;;;;;;;;;;7.60;99.90;;;;;;5083751;28;19934;-75
2023/02/05 02:56:35;;;;;;;;;;;7.60;99.90;;;;;;5085547;28;20190;-74
2023/02/05 02:59:05;;;;;;;;;;;7.60;99.90;;;;;;5089457;28;20019;-74
2023/02/05 03:01:34;;;;;;;;;;;7.60;99.90;;;;;;5082367;28;19969;-74
2023/02/05 03:04:04;;;;;;;;;;;7.60;99.90;;;;;;5080258;28;20019;-74
2023/02/05 03:06:31;;;;;;;;;;;7.60;99.90;;;;;;5084941;28;19932;-73
2023/02/05 03:09:01;;;;;;;;;;;7.60;99.90;;;;;;5086709;28;19944;-74
2023/02/05 03:11:27;;;;;;;;;;;7.50;99.90;;;;;;5084831;28;19933;-75
2023/02/05 03:13:55;;;;;;;;;;;7.50;99.90;;;;;;5089036;28;20027;-73
2023/02/05 03:16:23;;;;;;;;;;;7.50;99.90;;;;;;5084125;28;19986;-74
2023/02/05 03:18:51;;;;;;;;;;;7.50;99.90;;;;;;5088461;28;19928;-74
2023/02/05 03:21:18;;;;;;;;;;;7.50;99.90;;;;;;5085299;28;19924;-75
2023/02/05 03:23:45;;;;;;;;;;;7.50;99.90;;;;;;5083721;28;19924;-74
2023/02/05 03:26:25;;;;;;;;;;;7.50;99.90;;;;;;5088621;28;19946;-75
2023/02/05 03:28:52;;;;;;;;;;;7.50;99.90;;;;;;5088493;28;19930;-75
2023/02/05 03:31:20;;;;;;;;;;;7.50;99.90;;;;;;5086885;28;19924;-74
2023/02/05 03:33:53;;;;;;;;;;;7.50;99.90;;;;;;5086358;28;19928;-74
2023/02/05 03:36:25;;;;;;;;;;;7.50;99.90;;;;;;5087664;28;19924;-74
2023/02/05 03:38:59;;;;;;;;;;;7.50;99.90;;;;;;5087398;28;19930;-73
2023/02/05 03:41:54;;;;;;;;;;;7.50;99.90;;;;;;5086439;28;19928;-74
2023/02/05 03:44:22;;;;;;;;;;;7.40;99.90;;;;;;5086431;28;19928;-74
2023/02/05 03:46:55;;;;;;;;;;;7.50;99.90;;;;;;5084907;28;19924;-74
2023/02/05 03:49:28;;;;;;;;;;;7.50;99.90;;;;;;5087472;28;19924;-74
2023/02/05 03:51:58;;;;;;;;;;;7.50;99.90;;;;;;5081022;28;19928;-75
2023/02/05 03:54:28;;;;;;;;;;;7.40;99.90;;;;;;5082056;28;20283;-74
2023/02/05 03:56:58;;;;;;;;;;;7.50;99.90;;;;;;5081830;28;19924;-74
2023/02/05 03:59:25;;;;;;;;;;;7.50;99.90;;;;;;5082722;28;19935;-74
2023/02/05 04:01:53;;;;;;;;;;;7.50;99.90;;;;;;5083943;28;20405;-74
2023/02/05 04:04:20;;;;;;;;;;;7.50;99.90;;;;;;5086408;28;20391;-74
2023/02/05 04:06:47;;;;;;;;;;;7.50;99.90;;;;;;5080497;28;20015;-75
2023/02/05 04:09:16;;;;;;;;;;;7.50;99.90;;;;;;5085944;28;19924;-75
2023/02/05 04:11:42;;;;;;;;;;;7.50;99.90;;;;;;5080922;28;19923;-74
2023/02/05 04:14:09;;;;;;;;;;;7.50;99.90;;;;;;5090098;28;20019;-74
2023/02/05 04:16:36;;;;;;;;;;;7.50;99.90;;;;;;5087781;28;20284;-74
2023/02/05 04:19:02;;;;;;;;;;;7.50;99.90;;;;;;5085053;28;19930;-75
2023/02/05 04:21:29;;;;;;;;;;;7.50;99.90;;;;;;5082424;28;20018;-74
2023/02/05 04:23:56;;;;;;;;;;;7.50;99.90;;;;;;5087604;28;20026;-74
2023/02/05 04:26:24;;;;;;;;;;;7.40;99.90;;;;;;5084073;28;19975;-75
2023/02/05 04:28:50;;;;;;;;;;;7.40;99.90;;;;;;5084883;28;19959;-74
2023/02/05 04:31:17;;;;;;;;;;;7.50;99.90;;;;;;5084018;28;19932;-75
2023/02/05 04:33:44;;;;;;;;;;;7.50;99.90;;;;;;5080189;28;19928;-74
2023/02/05 04:36:11;;;;;;;;;;;7.50;99.90;;;;;;5086652;28;20011;-74
2023/02/05 04:38:37;;;;;;;;;;;7.50;99.90;;;;;;5082455;28;19932;-75
2023/02/05 04:41:04;;;;;;;;;;;7.50;99.90;;;;;;5082920;28;19985;-74
2023/02/05 04:43:32;;;;;;;;;;;7.50;99.90;;;;;;5085678;28;19946;-74
2023/02/05 04:46:04;;;;;;;;;;;7.50;99.90;;;;;;5085904;28;19924;-74
2023/02/05 04:48:30;;;;;;;;;;;7.40;99.90;;;;;;5083862;28;19932;-75
2023/02/05 04:50:57;;;;;;;;;;;7.40;99.90;;;;;;5082940;28;19963;-75
2023/02/05 04:53:24;;;;;;;;;;;7.40;99.90;;;;;;5085162;28;20405;-75
2023/02/05 04:55:50;;;;;;;;;;;7.40;99.90;;;;;;5084454;28;19934;-75
2023/02/05 04:58:17;;;;;;;;;;;7.40;99.90;;;;;;5084725;28;20011;-75
2023/02/05 05:00:45;;;;;;;;;;;7.30;99.90;;;;;;5080361;28;19928;-75
2023/02/05 05:03:11;;;;;;;;;;;7.30;99.90;;;;;;5085260;28;19959;-74
2023/02/05 05:05:38;;;;;;;;;;;7.30;99.90;;;;;;5083968;28;20011;-75
2023/02/05 05:08:05;;;;;;;;;;;7.20;99.90;;;;;;5077579;28;20058;-75
2023/02/05 05:10:31;;;;;;;;;;;7.20;99.90;;;;;;5079369;28;19950;-75
2023/02/05 05:12:58;;;;;;;;;;;7.20;99.90;;;;;;5081953;28;20339;-75
2023/02/05 05:15:25;;;;;;;;;;;7.20;99.90;;;;;;5081254;28;19924;-75
2023/02/05 05:17:53;;;;;;;;;;;7.20;99.90;;;;;;5082293;28;20015;-75
2023/02/05 05:20:19;;;;;;;;;;;7.20;99.90;;;;;;5081248;28;19934;-74
2023/02/05 05:22:46;;;;;;;;;;;7.10;99.90;;;;;;5080295;28;20010;-74
2023/02/05 05:25:13;;;;;;;;;;;7.10;99.90;;;;;;5080725;28;19930;-74
2023/02/05 05:27:39;;;;;;;;;;;7.10;99.90;;;;;;5083832;28;20351;-74
2023/02/05 05:30:06;;;;;;;;;;;7.10;99.90;;;;;;5086568;28;20286;-74
2023/02/05 05:32:33;;;;;;;;;;;7.10;99.90;;;;;;5079544;28;20005;-74
2023/02/05 05:35:01;;;;;;;;;;;7.10;99.90;;;;;;5082269;28;19928;-75
2023/02/05 05:37:28;;;;;;;;;;;7.10;99.90;;;;;;5081468;28;19958;-74
2023/02/05 05:45:34;;;;;;;;;;;7.10;99.90;;;;;;4992758;28;19965;-74
2023/02/05 05:48:02;;;;;;;;;;;7.10;99.90;;;;;;5059033;28;19925;-74
2023/02/05 05:50:30;;;;;;;;;;;7.10;99.90;;;;;;5077685;28;19928;-76
2023/02/05 05:52:56;;;;;;;;;;;7.10;99.90;;;;;;5084178;28;19924;-75
2023/02/05 05:55:23;;;;;;;;;;;7.00;99.90;;;;;;5081442;28;19978;-75
2023/02/05 05:57:50;;;;;;;;;;;7.00;99.90;;;;;;5080995;28;20026;-75
2023/02/05 06:00:16;;;;;;;;;;;7.10;99.90;;;;;;5085427;28;19928;-75
2023/02/05 06:02:43;;;;;;;;;;;7.10;99.90;;;;;;5082138;28;19939;-74
2023/02/05 06:05:10;;;;;;;;;;;7.10;99.90;;;;;;5085439;28;19928;-74
2023/02/05 06:07:38;;;;;;;;;;;7.10;99.90;;;;;;5080887;28;20382;-75
2023/02/05 06:10:05;;;;;;;;;;;7.20;99.90;;;;;;5084424;28;19930;-75
2023/02/05 06:12:31;;;;;;;;;;;7.20;99.90;;;;;;5082741;28;19932;-75
2023/02/05 06:14:58;;;;;;;;;;;7.20;99.90;;;;;;5083762;28;19934;-75
2023/02/05 06:17:25;;;;;;;;;;;7.20;99.90;;;;;;5083330;28;20167;-75
2023/02/05 06:19:52;;;;;;;;;;;7.20;99.90;;;;;;5076812;28;19928;-75
2023/02/05 06:22:18;;;;;;;;;;;7.20;99.90;;;;;;5078941;28;20073;-75
2023/02/05 06:24:46;;;;;;;;;;;7.20;99.90;;;;;;5081706;28;20007;-74
2023/02/05 06:27:13;;;;;;;;;;;7.10;99.90;;;;;;5084714;28;20239;-76
2023/02/05 06:29:39;;;;;;;;;;;7.10;99.90;;;;;;5083989;28;19924;-75
2023/02/05 06:32:06;;;;;;;;;;;7.00;99.90;;;;;;5079899;28;19931;-74
2023/02/05 06:34:33;;;;;;;;;;;7.00;99.90;;;;;;5079978;28;19942;-74
2023/02/05 06:37:00;;;;;;;;;;;7.00;99.90;;;;;;5079842;28;19931;-74
2023/02/05 06:39:26;;;;;;;;;;;7.00;99.90;;;;;;5084459;28;19924;-73
2023/02/05 06:41:54;;;;;;;;;;;7.00;99.90;;;;;;5079512;28;20071;-73
2023/02/05 06:44:23;;;;;;;;;;;7.00;99.90;;;;;;5083060;28;19924;-74
2023/02/05 06:46:50;;;;;;;;;;;6.90;99.90;;;;;;5084511;28;20361;-74
2023/02/05 06:49:17;;;;;;;;;;;7.00;99.90;;;;;;5086575;28;19924;-73
2023/02/05 06:51:43;;;;;;;;;;;6.90;99.90;;;;;;5079539;28;19930;-74
2023/02/05 06:54:10;;;;;;;;;;;6.90;99.90;;;;;;5081434;28;19924;-73
2023/02/05 06:56:37;;;;;;;;;;;6.90;99.90;;;;;;5083037;28;19924;-74
2023/02/05 06:59:05;;;;;;;;;;;6.80;99.90;;;;;;5078700;28;20573;-73
2023/02/05 07:01:31;;;;;;;;;;;6.80;99.90;;;;;;5077452;28;19986;-73
2023/02/05 07:03:59;;;;;;;;;;;6.80;99.90;;;;;;5083829;28;19928;-74
2023/02/05 07:06:26;;;;;;;;;;;6.70;99.90;;;;;;5083349;28;20398;-74
2023/02/05 07:08:53;;;;;;;;;;;6.60;99.90;;;;;;5081871;28;20043;-74
2023/02/05 07:11:20;;;;;;;;;;;6.60;99.90;;;;;;5085680;28;19932;-76
2023/02/05 07:13:46;;;;;;;;;;;6.60;99.90;;;;;;5087174;28;19924;-74
2023/02/05 07:16:15;;;;;;;;;;;6.70;99.90;;;;;;5085330;28;20012;-74
2023/02/05 07:18:42;;;;;;;;;;;6.70;99.90;;;;;;5085118;28;19932;-75
2023/02/05 07:21:10;;;;;;;;;;;6.70;99.90;;;;;;5082039;28;19924;-74
2023/02/05 07:23:36;;;;;;;;;;;6.70;99.90;;;;;;5087031;28;20486;-74
2023/02/05 07:26:07;;;;;;;;;;;6.70;99.90;;;;;;5080433;28;19934;-74
2023/02/05 07:28:34;;;;;;;;;;;6.60;99.90;;;;;;5087555;28;20383;-73
2023/02/05 07:31:02;;;;;;;;;;;6.60;99.90;;;;;;5088580;28;19931;-73
2023/02/05 07:33:30;;;;;;;;;;;6.60;99.90;;;;;;5086307;28;19931;-74
2023/02/05 07:35:57;;;;;;;;;;;6.70;99.90;;;;;;5088390;28;20447;-74
2023/02/05 07:38:24;;;;;;;;;;;6.60;99.90;;;;;;5082156;28;19927;-74
2023/02/05 07:40:51;;;;;;;;;;;6.60;99.90;;;;;;5078239;28;19954;-74
2023/02/05 07:43:18;;;;;;;;;;;6.60;99.90;;;;;;5083581;28;19924;-75
2023/02/05 07:45:45;;;;;;;;;;;6.60;99.90;;;;;;5082359;28;20019;-74
2023/02/05 07:48:11;;;;;;;;;;;6.60;99.90;;;;;;5083125;28;19924;-73
2023/02/05 07:50:42;;;;;;;;;;;6.60;99.90;;;;;;5076157;28;19925;-74
2023/02/05 07:53:09;;;;;;;;;;;6.60;99.90;;;;;;5089696;28;20012;-74
2023/02/05 07:55:35;;;;;;;;;;;6.60;99.90;;;;;;5088193;28;19935;-75
2023/02/05 07:58:02;;;;;;;;;;;6.60;99.90;;;;;;5088866;28;20413;-75
2023/02/05 08:00:29;;;;;;;;;;;6.70;99.90;;;;;;5087688;28;19932;-75
2023/02/05 08:02:55;;;;;;;;;;;6.70;99.90;;;;;;5076057;28;19924;-76
2023/02/05 08:05:22;;;;;;;;;;;6.70;99.90;;;;;;5088273;28;19989;-74
2023/02/05 08:07:50;;;;;;;;;;;6.70;99.90;;;;;;5087652;28;20382;-74
2023/02/05 08:10:17;;;;;;;;;;;6.70;99.90;;;;;;5089255;28;20351;-75
2023/02/05 08:12:43;;;;;;;;;;;6.80;99.90;;;;;;5085445;28;20022;-74
2023/02/05 08:15:10;;;;;;;;;;;6.80;99.90;;;;;;5087907;28;19927;-75
2023/02/05 08:17:37;;;;;;;;;;;6.80;99.90;;;;;;5077653;28;19939;-74
2023/02/05 08:20:06;;;;;;;;;;;6.80;99.90;;;;;;5077794;28;20011;-75
2023/02/05 08:22:34;;;;;;;;;;;6.80;99.90;;;;;;5078345;28;19980;-76
2023/02/05 08:25:02;;;;;;;;;;;6.90;99.90;;;;;;5079086;28;19931;-74
2023/02/05 08:27:28;;;;;;;;;;;6.80;99.90;;;;;;5078827;28;19924;-73
2023/02/05 08:29:55;;;;;;;;;;;6.80;99.90;;;;;;5077017;28;19935;-74
2023/02/05 08:32:22;;;;;;;;;;;6.80;99.90;;;;;;5075025;28;19973;-74
2023/02/05 08:34:48;;;;;;;;;;;6.90;99.90;;;;;;5084347;28;19931;-73
2023/02/05 08:37:15;;;;;;;;;;;6.90;99.90;;;;;;5080097;28;19938;-74
2023/02/05 08:39:42;;;;;;;;;;;6.90;99.90;;;;;;5075791;28;20010;-76
2023/02/05 08:42:10;;;;;;;;;;;6.90;99.90;;;;;;5079224;28;19928;-74
2023/02/05 08:44:37;;;;;;;;;;;7.00;99.90;;;;;;5080965;28;19923;-75
2023/02/05 08:47:04;;;;;;;;;;;7.00;99.90;;;;;;5066615;28;20316;-76
2023/02/05 08:49:31;;;;;;;;;;;7.00;99.90;;;;;;5075618;28;19955;-76
2023/02/05 08:51:58;;;;;;;;;;;6.90;99.90;;;;;;5076953;28;20010;-75
2023/02/05 08:54:24;;;;;;;;;;;7.00;99.90;;;;;;5079906;28;19931;-73
2023/02/05 08:56:51;;;;;;;;;;;7.10;99.90;;;;;;5077954;28;20264;-73
2023/02/05 08:59:20;;;;;;;;;;;7.00;99.90;;;;;;5085628;28;19955;-73
2023/02/05 09:01:47;;;;;;;;;;;7.00;99.90;;;;;;5074011;28;19943;-73
2023/02/05 09:04:14;;;;;;;;;;;7.10;99.90;;;;;;5075857;28;19931;-73
2023/02/05 09:06:41;;;;;;;;;;;7.10;99.90;;;;;;5074217;28;19939;-74
2023/02/05 09:09:08;;;;;;;;;;;7.10;99.90;;;;;;5072723;28;20394;-73
2023/02/05 09:11:34;;;;;;;;;;;7.10;99.90;;;;;;5074484;28;19928;-73
2023/02/05 09:14:01;;;;;;;;;;;7.10;99.90;;;;;;5068445;28;19954;-73
2023/02/05 09:16:29;;;;;;;;;;;7.10;99.90;;;;;;5078343;28;19933;-73
2023/02/05 09:18:56;;;;;;;;;;;7.00;99.90;;;;;;5083628;28;20409;-73
2023/02/05 09:21:23;;;;;;;;;;;6.90;99.90;;;;;;5080288;28;20434;-73
2023/02/05 09:23:50;;;;;;;;;;;6.80;99.90;;;;;;5086474;28;19924;-74
2023/02/05 09:26:16;;;;;;;;;;;6.80;99.90;;;;;;5084196;28;19928;-72
2023/02/05 09:28:43;;;;;;;;;;;6.80;99.90;;;;;;5079768;28;20423;-73
2023/02/05 09:31:12;;;;;;;;;;;6.90;99.90;;;;;;5082374;28;20133;-74
2023/02/05 09:33:40;;;;;;;;;;;6.80;99.90;;;;;;5080515;28;19924;-73
2023/02/05 09:36:07;;;;;;;;;;;6.80;99.90;;;;;;5086781;28;20019;-72
2023/02/05 09:38:34;;;;;;;;;;;6.80;99.90;;;;;;5082525;28;20220;-73
2023/02/05 09:41:02;;;;;;;;;;;7.00;99.90;;;;;;5086754;28;20378;-73
2023/02/05 09:43:44;;;;;;;;;;;7.00;99.90;;;;;;5084946;28;20169;-73
2023/02/05 09:46:13;;;;;;;;;;;7.00;99.90;;;;;;5072206;28;20137;-74
2023/02/05 09:48:48;;;;;;;;;;;7.10;99.90;;;;;;5080558;28;20302;-74
2023/02/05 09:51:16;;;;;;;;;;;7.30;99.90;;;;;;5081229;28;19928;-74
2023/02/05 09:53:45;;;;;;;;;;;7.40;99.90;;;;;;5081199;28;19928;-74
2023/02/05 09:56:14;;;;;;;;;;;7.50;99.90;;;;;;5081730;28;20247;-74
2023/02/05 09:58:42;;;;;;;;;;;7.50;99.90;;;;;;5081644;28;20006;-73
2023/02/05 10:01:13;;;;;;;;;;;7.50;99.90;;;;;;5083266;28;20030;-73
2023/02/05 10:03:43;;;;;;;;;;;7.50;99.90;;;;;;5085208;28;19930;-72
2023/02/05 10:06:16;;;;;;;;;;;7.30;99.90;;;;;;5085096;28;19965;-72
2023/02/05 10:08:48;;;;;;;;;;;7.30;99.90;;;;;;5078248;28;19928;-73
2023/02/05 10:11:19;;;;;;;;;;;7.30;99.90;;;;;;5080104;28;20394;-73
2023/02/05 10:13:47;;;;;;;;;;;7.30;99.90;;;;;;5081323;28;20015;-72
2023/02/05 10:16:25;;;;;;;;;;;7.40;99.90;;;;;;5083841;28;19924;-74
2023/02/05 10:18:57;;;;;;;;;;;7.50;99.90;;;;;;5075866;28;19966;-74
2023/02/05 10:21:31;;;;;;;;;;;7.70;99.90;;;;;;5076928;28;20004;-73
2023/02/05 10:24:06;;;;;;;;;;;8.00;99.90;;;;;;5081270;28;19950;-73
2023/02/05 10:26:36;;;;;;;;;;;8.00;99.90;;;;;;5087271;28;19924;-74
2023/02/05 10:29:11;;;;;;;;;;;8.00;99.90;;;;;;5077000;28;19929;-74
2023/02/05 10:31:40;;;;;;;;;;;7.80;99.90;;;;;;5084209;28;19924;-74
2023/02/05 10:34:15;;;;;;;;;;;7.70;99.90;;;;;;5083689;28;19931;-74
2023/02/05 10:36:43;;;;;;;;;;;7.80;99.90;;;;;;5095832;28;20169;-74
2023/02/05 10:39:13;;;;;;;;;;;7.70;99.90;;;;;;5073886;28;19928;-74
2023/02/05 10:41:42;;;;;;;;;;;7.50;99.90;;;;;;5084430;28;19972;-74
2023/02/05 10:44:11;;;;;;;;;;;7.60;99.90;;;;;;5086376;28;19955;-73
2023/02/05 10:46:39;;;;;;;;;;;7.50;99.90;;;;;;5087241;28;19928;-74
2023/02/05 10:49:08;;;;;;;;;;;7.60;99.90;;;;;;5086101;28;20450;-74
2023/02/05 10:51:38;;;;;;;;;;;7.70;99.90;;;;;;5098951;28;19927;-74
2023/02/05 10:54:13;;;;;;;;;;;7.60;99.90;;;;;;5086616;28;19924;-75
2023/02/05 10:56:40;;;;;;;;;;;7.70;99.90;;;;;;5076891;28;20431;-75
2023/02/05 10:59:06;;;;;;;;;;;7.80;99.90;;;;;;5080451;28;19968;-74
2023/02/05 11:01:34;;;;;;;;;;;7.80;99.90;;;;;;5079536;28;19939;-75
2023/02/05 11:04:03;;;;;;;;;;;8.00;99.90;;;;;;5076359;28;21479;-74
2023/02/05 11:06:32;;;;;;;;;;;8.00;99.90;;;;;;5082013;28;19932;-74
2023/02/05 11:08:59;;;;;;;;;;;8.10;99.90;;;;;;5086107;28;19932;-74
2023/02/05 11:11:28;;;;;;;;;;;8.20;99.90;;;;;;5085846;28;19924;-74
2023/02/05 11:13:56;;;;;;;;;;;8.20;99.90;;;;;;5080936;28;19924;-74
2023/02/05 11:16:23;;;;;;;;;;;8.30;99.90;;;;;;5087470;28;20374;-74
2023/02/05 11:18:57;;;;;;;;;;;8.20;99.90;;;;;;5088624;28;20015;-74
2023/02/05 11:21:25;;;;;;;;;;;8.40;99.90;;;;;;5078006;28;19924;-73
2023/02/05 11:23:55;;;;;;;;;;;8.40;99.90;;;;;;5086093;28;19924;-74
2023/02/05 11:26:23;;;;;;;;;;;8.40;99.90;;;;;;5083480;28;20018;-74
2023/02/05 11:28:51;;;;;;;;;;;8.50;99.90;;;;;;5087161;28;19924;-74
2023/02/05 11:31:19;;;;;;;;;;;8.50;99.90;;;;;;5082827;28;19924;-74
2023/02/05 11:33:46;;;;;;;;;;;8.50;99.90;;;;;;5086644;28;19931;-72
2023/02/05 11:36:16;;;;;;;;;;;8.40;99.90;;;;;;5083694;28;19932;-73
2023/02/05 11:38:44;;;;;;;;;;;8.40;99.90;;;;;;5075807;28;20255;-72
2023/02/05 11:41:12;;;;;;;;;;;8.20;99.90;;;;;;5078375;28;19936;-72
2023/02/05 11:43:40;;;;;;;;;;;8.40;99.90;;;;;;5080873;28;19931;-73
2023/02/05 11:46:10;;;;;;;;;;;8.50;99.90;;;;;;5080930;28;20353;-74
2023/02/05 11:48:39;;;;;;;;;;;8.40;99.90;;;;;;5081905;28;19951;-72
2023/02/05 11:51:06;;;;;;;;;;;8.30;99.90;;;;;;5092481;28;19923;-72
2023/02/05 11:53:34;;;;;;;;;;;8.20;99.90;;;;;;5082159;28;20411;-72
2023/02/05 11:56:03;;;;;;;;;;;8.20;99.90;;;;;;5086502;28;20011;-73
2023/02/05 11:58:31;;;;;;;;;;;8.10;99.90;;;;;;5085067;28;20310;-73
2023/02/05 12:00:59;;;;;;;;;;;8.20;99.90;;;;;;5085352;28;20036;-73
2023/02/05 12:03:30;;;;;;;;;;;8.30;99.90;;;;;;5082224;28;19973;-73
2023/02/05 12:06:03;;;;;;;;;;;8.30;99.90;;;;;;5084364;28;19964;-72
2023/02/05 12:08:36;;;;;;;;;;;8.40;99.90;;;;;;5084014;28;20452;-73
2023/02/05 12:11:09;;;;;;;;;;;8.60;99.90;;;;;;5078983;28;20022;-73
2023/02/05 12:13:42;;;;;;;;;;;8.60;99.90;;;;;;5074638;28;19978;-72
2023/02/05 12:16:14;;;;;;;;;;;8.50;99.90;;;;;;5084905;28;20043;-72
2023/02/05 12:18:48;;;;;;;;;;;8.50;99.90;;;;;;5076558;28;19924;-73
2023/02/05 12:21:19;;;;;;;;;;;8.60;99.90;;;;;;5077783;28;19924;-72
2023/02/05 12:24:06;;;;;;;;;;;8.70;99.90;;;;;;5085038;28;20056;-72
2023/02/05 12:26:35;;;;;;;;;;;8.60;99.90;;;;;;5070279;28;19925;-71
2023/02/05 12:29:08;;;;;;;;;;;8.70;99.90;;;;;;5083887;28;19972;-72
2023/02/05 12:31:45;;;;;;;;;;;8.40;99.90;;;;;;5074954;28;19924;-72
2023/02/05 12:34:19;;;;;;;;;;;8.40;99.90;;;;;;5076643;28;19932;-71
2023/02/05 12:36:52;;;;;;;;;;;8.50;99.90;;;;;;5080641;28;20148;-71
2023/02/05 12:39:25;;;;;;;;;;;8.60;99.90;;;;;;5078094;28;19924;-72
2023/02/05 12:41:57;;;;;;;;;;;8.50;99.90;;;;;;5079516;28;19965;-73
2023/02/05 12:44:31;;;;;;;;;;;8.80;99.90;;;;;;5085115;28;20073;-73
2023/02/05 12:47:04;;;;;;;;;;;8.70;99.90;;;;;;5085808;28;20429;-74
2023/02/05 12:49:39;;;;;;;;;;;8.70;99.90;;;;;;5072618;28;19931;-74
2023/02/05 12:52:17;;;;;;;;;;;8.50;99.90;;;;;;5086543;28;20017;-74
2023/02/05 12:54:51;;;;;;;;;;;8.50;99.90;;;;;;5086962;28;19936;-75
2023/02/05 12:57:20;;;;;;;;;;;8.50;99.90;;;;;;5088281;28;20011;-75
2023/02/05 12:59:49;;;;;;;;;;;8.40;99.90;;;;;;5085577;28;20405;-75
2023/02/05 13:02:22;;;;;;;;;;;8.40;99.90;;;;;;5077407;28;20352;-75
2023/02/05 13:04:52;;;;;;;;;;;8.50;99.90;;;;;;5084057;28;19934;-74
2023/02/05 13:07:25;;;;;;;;;;;8.80;99.90;;;;;;5079270;28;19924;-75
2023/02/05 13:09:55;;;;;;;;;;;8.90;99.90;;;;;;5083199;28;19989;-74
2023/02/05 13:12:23;;;;;;;;;;;8.80;99.90;;;;;;5088513;28;19939;-72
2023/02/05 13:14:55;;;;;;;;;;;8.70;99.90;;;;;;5085901;28;19975;-74
2023/02/05 13:17:23;;;;;;;;;;;8.60;99.90;;;;;;5071266;28;19924;-76
2023/02/05 13:19:54;;;;;;;;;;;8.40;99.90;;;;;;5085000;28;20149;-75
2023/02/05 13:30:49;;;;;;;;;;;8.80;99.90;;;;;;5080906;28;20279;-77
2023/02/05 13:33:15;;;;;;;;;;;8.60;99.90;;;;;;5087761;28;20014;-79
2023/02/05 13:35:48;;;;;;;;;;;8.60;99.90;;;;;;5077432;28;19931;-78
2023/02/05 13:38:31;;;;;;;;;;;8.30;99.90;;;;;;5080533;28;19934;-80
2023/02/05 13:41:12;;;;;;;;;;;8.40;99.90;;;;;;5074648;28;20425;-75
2023/02/05 13:43:45;;;;;;;;;;;8.40;99.90;;;;;;5075799;28;19932;-76
2023/02/05 13:46:27;;;;;;;;;;;8.40;99.90;;;;;;5079625;28;19924;-75
2023/02/05 13:49:05;;;;;;;;;;;8.40;99.90;;;;;;5065794;28;19977;-75
2023/02/05 13:51:43;;;;;;;;;;;8.40;99.90;;;;;;5083591;28;20371;-77
2023/02/05 13:54:16;;;;;;;;;;;8.50;99.90;;;;;;5084206;28;19928;-77
2023/02/05 13:56:48;;;;;;;;;;;8.60;99.90;;;;;;5085373;28;19984;-76
2023/02/05 13:59:17;;;;;;;;;;;8.50;99.90;;;;;;5083574;28;20326;-77
2023/02/05 14:01:48;;;;;;;;;;;8.40;99.90;;;;;;5083008;28;20049;-76
2023/02/05 14:04:19;;;;;;;;;;;8.50;99.90;;;;;;5075530;28;19971;-77
2023/02/05 14:06:54;;;;;;;;;;;8.50;99.90;;;;;;5081889;28;20423;-75
2023/02/05 14:09:23;;;;;;;;;;;8.30;99.90;;;;;;5081193;28;20435;-77
2023/02/05 14:11:52;;;;;;;;;;;8.30;99.90;;;;;;5082644;28;19924;-78
2023/02/05 14:14:26;;;;;;;;;;;8.40;99.90;;;;;;5089151;28;20308;-78
2023/02/05 14:16:54;;;;;;;;;;;8.50;99.90;;;;;;5088144;28;19924;-80
2023/02/05 14:19:24;;;;;;;;;;;8.50;99.90;;;;;;5093045;28;19925;-79
2023/02/05 14:21:59;;;;;;;;;;;8.50;99.90;;;;;;5089957;28;20026;-78
2023/02/05 14:24:28;;;;;;;;;;;8.60;99.90;;;;;;5081056;28;20011;-78
2023/02/05 14:26:56;;;;;;;;;;;8.60;99.90;;;;;;5090374;28;20054;-78
2023/02/05 14:29:38;;;;;;;;;;;8.40;99.90;;;;;;5079757;28;19936;-78
2023/02/05 14:32:06;;;;;;;;;;;8.30;99.90;;;;;;5082826;28;19963;-77
2023/02/05 14:34:50;;;;;;;;;;;8.20;99.90;;;;;;5077948;28;19924;-78
2023/02/05 14:37:30;;;;;;;;;;;8.20;99.90;;;;;;5085858;28;20303;-78
2023/02/05 14:39:57;;;;;;;;;;;8.30;99.90;;;;;;5090567;28;19924;-78
2023/02/05 14:42:27;;;;;;;;;;;8.40;99.90;;;;;;5090518;28;20030;-80
2023/02/05 14:44:56;;;;;;;;;;;8.30;99.90;;;;;;5082516;28;19924;-77
2023/02/05 14:47:24;;;;;;;;;;;8.30;99.90;;;;;;5086620;28;19935;-78
2023/02/05 14:49:52;;;;;;;;;;;8.30;99.90;;;;;;5090954;28;19934;-79
2023/02/05 14:52:31;;;;;;;;;;;8.30;99.90;;;;;;5079227;28;19985;-79
2023/02/05 14:55:00;;;;;;;;;;;8.20;99.90;;;;;;5086980;28;19928;-79